Terminal Aerodrome Forecast
Issued by NWS Wilmington, OH

Current Version | Previous Version | Graphics & Text | Print | Product List | Glossary On
Versions: 1 2 3 4 5 6 7 8 9 10 11 12 13 14 15
000
FTUS41 KILN 082334
TAFDAY
TAF
KDAY 082334Z 0900/0924 28012G22KT P6SM -SHSN SCT015 OVC022
     FM090800 27010KT P6SM OVC015
     FM091700 27011KT P6SM OVC022=

USA.gov is the U.S. government's official web portal to all federal, state and local government web resources and services.